METAR AND TAF INFORMATION
METAR FOR KMDW
KMDW 260153Z 00000KT 10SM BKN120 BKN250 12/01 A2979 RMK AO2 SLP092 T01170006 $
KMDW 260053Z 21004KT 10SM SCT150 BKN250 14/00 A2977 RMK AO2 SLP084 T01390000 $
KMDW 252353Z 22005KT 10SM SCT160 BKN250 14/00 A2975 RMK AO2 SLP078 T01390000 10167 20117 53008 $
KMDW 260258Z 2603/2706 24007KT P6SM BKN120 BKN250
FM260600 05004KT P6SM FEW120
FM261300 13007KT P6SM SKC
FM261600 16013G20KT P6SM FEW300
FM262100 17016G26KT P6SM SCT250
FM270100 19014G24KT P6SM FEW030 BKN150

 AIRPORT MAP

 RUNWAY INFORMATION
Runway 04L Runway length 5507 ft Runway width 150 ft
Runway elevation 617 ft Runway displaced threshold 758 ft Runway heading 43
Runway 22R Runway length 5507 ft Runway width 150 ft
Runway elevation 606 ft Runway displaced threshold 878 ft Runway heading 223
Runway 04R Runway length 6446 ft Runway width 150 ft
Runway elevation 619 ft Runway displaced threshold 518 ft Runway heading 43
Runway 22L Runway length 6446 ft Runway width 150 ft
Runway elevation 606 ft Runway displaced threshold 634 ft Runway heading 223
Runway 13C Runway length 6522 ft Runway width 150 ft
Runway elevation 608 ft Runway displaced threshold 463 ft Runway heading 134
Runway 31C Runway length 6522 ft Runway width 150 ft
Runway elevation 612 ft Runway displaced threshold 696 ft Runway heading 314
Runway 13L Runway length 5141 ft Runway width 150 ft
Runway elevation 606 ft Runway displaced threshold 752 ft Runway heading 134
Runway 31R Runway length 5141 ft Runway width 150 ft
Runway elevation 608 ft Runway displaced threshold 0 ft Runway heading 314
Runway 13R Runway length 3859 ft Runway width 60 ft
Runway elevation 607 ft Runway displaced threshold 0 ft Runway heading 134
Runway 31L Runway length 3859 ft Runway width 60 ft
Runway elevation 613 ft Runway displaced threshold 0 ft Runway heading 314

 AIRPORT FREQUENCIES
Type A/D Name APP/DEP Frequency 118.4 MHZ
Type ASOS Name ASOS Frequency 132.75 MHZ
Type ATIS Name ATIS Frequency 132.75 MHZ
Type CLD Name CLNC DEL Frequency 121.85 MHZ
Type GND Name GND Frequency 121.65 MHZ
Type TWR Name TWR Frequency 118.7 MHZ
Type UNIC Name UNICOM Frequency 122.95 MHZ

 AIRPORT NEAR NAVIGATION AIDS
Type NDB Name Ermin Frequency 332 KHZ
Type NDB Name Kedzi Frequency 248 KHZ

-